sensor_id;sensor_type;location;lat;lon;timestamp;P1;durP1;ratioP1;P2;durP2;ratioP2
9789;SDS011;4934;50.852;8.098;2022-12-29T00:02:15;1.85;;;1.38;;
9789;SDS011;4934;50.852;8.098;2022-12-29T00:04:42;2.17;;;1.40;;
9789;SDS011;4934;50.852;8.098;2022-12-29T00:07:07;1.75;;;1.10;;
9789;SDS011;4934;50.852;8.098;2022-12-29T00:09:34;4.47;;;2.00;;
9789;SDS011;4934;50.852;8.098;2022-12-29T00:12:00;2.70;;;1.30;;
9789;SDS011;4934;50.852;8.098;2022-12-29T00:14:27;3.03;;;1.58;;
9789;SDS011;4934;50.852;8.098;2022-12-29T00:17:11;2.33;;;1.00;;
9789;SDS011;4934;50.852;8.098;2022-12-29T00:19:37;0.95;;;0.80;;
9789;SDS011;4934;50.852;8.098;2022-12-29T00:22:21;5.47;;;1.70;;
9789;SDS011;4934;50.852;8.098;2022-12-29T00:25:05;1.40;;;1.10;;
9789;SDS011;4934;50.852;8.098;2022-12-29T00:27:51;2.40;;;1.23;;
9789;SDS011;4934;50.852;8.098;2022-12-29T00:30:36;5.47;;;1.75;;
9789;SDS011;4934;50.852;8.098;2022-12-29T00:33:21;4.03;;;1.20;;
9789;SDS011;4934;50.852;8.098;2022-12-29T00:36:10;3.22;;;1.35;;
9789;SDS011;4934;50.852;8.098;2022-12-29T00:38:42;1.20;;;0.70;;
9789;SDS011;4934;50.852;8.098;2022-12-29T00:41:32;2.40;;;0.98;;
9789;SDS011;4934;50.852;8.098;2022-12-29T00:44:16;1.80;;;0.98;;
9789;SDS011;4934;50.852;8.098;2022-12-29T00:46:42;3.90;;;0.80;;
9789;SDS011;4934;50.852;8.098;2022-12-29T00:49:09;1.50;;;0.88;;
9789;SDS011;4934;50.852;8.098;2022-12-29T00:51:55;2.63;;;1.20;;
9789;SDS011;4934;50.852;8.098;2022-12-29T00:54:25;3.03;;;0.82;;
9789;SDS011;4934;50.852;8.098;2022-12-29T00:56:52;1.40;;;0.95;;
9789;SDS011;4934;50.852;8.098;2022-12-29T00:59:18;1.63;;;1.15;;
9789;SDS011;4934;50.852;8.098;2022-12-29T01:01:44;2.90;;;1.10;;
9789;SDS011;4934;50.852;8.098;2022-12-29T01:04:11;3.90;;;1.13;;
9789;SDS011;4934;50.852;8.098;2022-12-29T01:06:38;4.80;;;1.38;;
9789;SDS011;4934;50.852;8.098;2022-12-29T01:09:05;1.10;;;0.80;;
9789;SDS011;4934;50.852;8.098;2022-12-29T01:11:50;3.13;;;1.13;;
9789;SDS011;4934;50.852;8.098;2022-12-29T01:14:16;1.55;;;0.98;;
9789;SDS011;4934;50.852;8.098;2022-12-29T01:16:43;1.30;;;0.98;;
9789;SDS011;4934;50.852;8.098;2022-12-29T01:19:10;3.00;;;1.20;;
9789;SDS011;4934;50.852;8.098;2022-12-29T01:21:36;5.28;;;1.20;;
9789;SDS011;4934;50.852;8.098;2022-12-29T01:24:01;1.55;;;0.98;;
9789;SDS011;4934;50.852;8.098;2022-12-29T01:26:27;1.40;;;0.95;;
9789;SDS011;4934;50.852;8.098;2022-12-29T01:28:53;0.88;;;0.77;;
9789;SDS011;4934;50.852;8.098;2022-12-29T01:31:18;1.85;;;0.90;;
9789;SDS011;4934;50.852;8.098;2022-12-29T01:33:44;1.10;;;0.98;;
9789;SDS011;4934;50.852;8.098;2022-12-29T01:36:11;1.60;;;0.80;;
9789;SDS011;4934;50.852;8.098;2022-12-29T01:38:38;2.28;;;1.17;;
9789;SDS011;4934;50.852;8.098;2022-12-29T01:41:06;0.82;;;0.68;;
9789;SDS011;4934;50.852;8.098;2022-12-29T01:46:54;3.15;;;2.05;;
9789;SDS011;4934;50.852;8.098;2022-12-29T01:51:49;1.95;;;0.80;;
9789;SDS011;4934;50.852;8.098;2022-12-29T01:57:04;1.55;;;0.80;;
9789;SDS011;4934;50.852;8.098;2022-12-29T01:59:41;3.22;;;0.73;;
9789;SDS011;4934;50.852;8.098;2022-12-29T02:02:13;0.60;;;0.50;;
9789;SDS011;4934;50.852;8.098;2022-12-29T02:04:39;0.73;;;0.50;;
9789;SDS011;4934;50.852;8.098;2022-12-29T02:07:14;2.10;;;0.90;;
9789;SDS011;4934;50.852;8.098;2022-12-29T02:09:43;0.63;;;0.47;;
9789;SDS011;4934;50.852;8.098;2022-12-29T02:12:13;1.20;;;0.75;;
9789;SDS011;4934;50.852;8.098;2022-12-29T02:14:39;1.40;;;0.65;;
9789;SDS011;4934;50.852;8.098;2022-12-29T02:30:44;2.88;;;0.80;;
9789;SDS011;4934;50.852;8.098;2022-12-29T02:33:21;1.33;;;0.82;;
9789;SDS011;4934;50.852;8.098;2022-12-29T02:36:01;2.20;;;0.80;;
9789;SDS011;4934;50.852;8.098;2022-12-29T02:41:33;1.35;;;1.25;;
9789;SDS011;4934;50.852;8.098;2022-12-29T02:44:27;2.78;;;0.80;;
9789;SDS011;4934;50.852;8.098;2022-12-29T02:47:12;1.35;;;0.93;;
9789;SDS011;4934;50.852;8.098;2022-12-29T02:52:50;1.10;;;0.80;;
9789;SDS011;4934;50.852;8.098;2022-12-29T02:55:19;0.93;;;0.73;;
9789;SDS011;4934;50.852;8.098;2022-12-29T02:57:45;1.45;;;0.70;;
9789;SDS011;4934;50.852;8.098;2022-12-29T03:00:12;2.58;;;0.80;;
9789;SDS011;4934;50.852;8.098;2022-12-29T03:05:31;1.77;;;0.68;;
9789;SDS011;4934;50.852;8.098;2022-12-29T03:08:10;1.27;;;0.80;;
9789;SDS011;4934;50.852;8.098;2022-12-29T03:11:06;0.60;;;0.60;;
9789;SDS011;4934;50.852;8.098;2022-12-29T03:13:52;0.97;;;0.67;;
9789;SDS011;4934;50.852;8.098;2022-12-29T03:16:46;3.15;;;0.70;;
9789;SDS011;4934;50.852;8.098;2022-12-29T03:19:32;1.77;;;0.77;;
9789;SDS011;4934;50.852;8.098;2022-12-29T03:22:13;0.77;;;0.70;;
9789;SDS011;4934;50.852;8.098;2022-12-29T03:25:15;1.55;;;0.60;;
9789;SDS011;4934;50.852;8.098;2022-12-29T03:27:59;0.60;;;0.60;;
9789;SDS011;4934;50.852;8.098;2022-12-29T03:30:28;0.93;;;0.60;;
9789;SDS011;4934;50.852;8.098;2022-12-29T03:32:56;2.35;;;0.70;;
9789;SDS011;4934;50.852;8.098;2022-12-29T03:35:26;2.55;;;0.57;;
9789;SDS011;4934;50.852;8.098;2022-12-29T03:40:25;1.85;;;0.90;;
9789;SDS011;4934;50.852;8.098;2022-12-29T03:42:52;3.25;;;1.02;;
9789;SDS011;4934;50.852;8.098;2022-12-29T03:45:19;1.52;;;0.88;;
9789;SDS011;4934;50.852;8.098;2022-12-29T03:47:45;1.60;;;0.90;;
9789;SDS011;4934;50.852;8.098;2022-12-29T03:50:11;1.13;;;0.70;;
9789;SDS011;4934;50.852;8.098;2022-12-29T03:52:37;2.15;;;0.70;;
9789;SDS011;4934;50.852;8.098;2022-12-29T03:55:03;1.10;;;0.90;;
9789;SDS011;4934;50.852;8.098;2022-12-29T03:57:29;2.38;;;0.60;;
9789;SDS011;4934;50.852;8.098;2022-12-29T03:59:55;2.28;;;0.70;;
9789;SDS011;4934;50.852;8.098;2022-12-29T04:02:20;1.77;;;1.40;;
9789;SDS011;4934;50.852;8.098;2022-12-29T04:04:46;1.17;;;0.68;;
9789;SDS011;4934;50.852;8.098;2022-12-29T04:07:12;1.27;;;0.75;;
9789;SDS011;4934;50.852;8.098;2022-12-29T04:09:37;1.13;;;0.60;;
9789;SDS011;4934;50.852;8.098;2022-12-29T04:12:03;2.75;;;0.70;;
9789;SDS011;4934;50.852;8.098;2022-12-29T04:14:29;1.23;;;0.70;;
9789;SDS011;4934;50.852;8.098;2022-12-29T04:16:54;1.77;;;0.70;;
9789;SDS011;4934;50.852;8.098;2022-12-29T04:19:20;0.50;;;0.50;;
9789;SDS011;4934;50.852;8.098;2022-12-29T04:21:45;1.77;;;0.50;;
9789;SDS011;4934;50.852;8.098;2022-12-29T04:24:11;2.25;;;1.10;;
9789;SDS011;4934;50.852;8.098;2022-12-29T04:26:37;0.50;;;0.50;;
9789;SDS011;4934;50.852;8.098;2022-12-29T04:29:03;4.10;;;0.80;;
9789;SDS011;4934;50.852;8.098;2022-12-29T04:31:29;2.40;;;0.50;;
9789;SDS011;4934;50.852;8.098;2022-12-29T04:33:54;1.10;;;0.57;;
9789;SDS011;4934;50.852;8.098;2022-12-29T04:36:22;0.70;;;0.57;;
9789;SDS011;4934;50.852;8.098;2022-12-29T04:38:48;1.40;;;0.60;;
9789;SDS011;4934;50.852;8.098;2022-12-29T04:41:13;2.20;;;1.10;;
9789;SDS011;4934;50.852;8.098;2022-12-29T04:43:39;1.75;;;0.70;;
9789;SDS011;4934;50.852;8.098;2022-12-29T04:46:04;1.38;;;0.90;;
9789;SDS011;4934;50.852;8.098;2022-12-29T04:48:30;2.78;;;0.70;;
9789;SDS011;4934;50.852;8.098;2022-12-29T04:50:56;1.10;;;0.77;;
9789;SDS011;4934;50.852;8.098;2022-12-29T04:53:21;8.25;;;1.00;;
9789;SDS011;4934;50.852;8.098;2022-12-29T04:55:50;0.88;;;0.77;;
9789;SDS011;4934;50.852;8.098;2022-12-29T04:58:17;1.75;;;0.80;;
9789;SDS011;4934;50.852;8.098;2022-12-29T05:00:44;5.80;;;0.85;;
9789;SDS011;4934;50.852;8.098;2022-12-29T05:03:10;1.50;;;0.90;;
9789;SDS011;4934;50.852;8.098;2022-12-29T05:05:35;2.00;;;1.05;;
9789;SDS011;4934;50.852;8.098;2022-12-29T05:08:01;4.63;;;0.90;;
9789;SDS011;4934;50.852;8.098;2022-12-29T05:10:27;1.40;;;0.70;;
9789;SDS011;4934;50.852;8.098;2022-12-29T05:12:53;3.35;;;0.90;;
9789;SDS011;4934;50.852;8.098;2022-12-29T05:15:18;2.78;;;1.55;;
9789;SDS011;4934;50.852;8.098;2022-12-29T05:17:44;3.75;;;0.98;;
9789;SDS011;4934;50.852;8.098;2022-12-29T05:20:10;1.63;;;0.93;;
9789;SDS011;4934;50.852;8.098;2022-12-29T05:22:35;2.33;;;1.05;;
9789;SDS011;4934;50.852;8.098;2022-12-29T05:25:01;2.38;;;1.08;;
9789;SDS011;4934;50.852;8.098;2022-12-29T05:27:27;1.63;;;0.75;;
9789;SDS011;4934;50.852;8.098;2022-12-29T05:29:53;1.80;;;0.80;;
9789;SDS011;4934;50.852;8.098;2022-12-29T05:32:18;4.03;;;0.82;;
9789;SDS011;4934;50.852;8.098;2022-12-29T05:34:44;1.50;;;0.63;;
9789;SDS011;4934;50.852;8.098;2022-12-29T05:37:10;1.10;;;0.60;;
9789;SDS011;4934;50.852;8.098;2022-12-29T05:39:35;2.22;;;0.63;;
9789;SDS011;4934;50.852;8.098;2022-12-29T05:42:01;2.67;;;0.82;;
9789;SDS011;4934;50.852;8.098;2022-12-29T05:44:26;2.75;;;0.80;;
9789;SDS011;4934;50.852;8.098;2022-12-29T05:46:52;2.03;;;1.00;;
9789;SDS011;4934;50.852;8.098;2022-12-29T05:49:17;2.05;;;1.50;;
9789;SDS011;4934;50.852;8.098;2022-12-29T05:51:43;2.45;;;1.30;;
9789;SDS011;4934;50.852;8.098;2022-12-29T05:54:09;4.43;;;0.90;;
9789;SDS011;4934;50.852;8.098;2022-12-29T05:56:35;2.50;;;1.27;;
9789;SDS011;4934;50.852;8.098;2022-12-29T05:59:00;3.13;;;1.27;;
9789;SDS011;4934;50.852;8.098;2022-12-29T06:01:26;2.00;;;1.33;;
9789;SDS011;4934;50.852;8.098;2022-12-29T06:03:51;1.50;;;0.73;;
9789;SDS011;4934;50.852;8.098;2022-12-29T06:06:17;3.20;;;1.20;;
9789;SDS011;4934;50.852;8.098;2022-12-29T06:08:44;2.25;;;1.00;;
9789;SDS011;4934;50.852;8.098;2022-12-29T06:11:09;1.17;;;0.93;;
9789;SDS011;4934;50.852;8.098;2022-12-29T06:13:35;2.30;;;1.10;;
9789;SDS011;4934;50.852;8.098;2022-12-29T06:16:00;2.45;;;1.20;;
9789;SDS011;4934;50.852;8.098;2022-12-29T06:18:26;1.90;;;1.00;;
9789;SDS011;4934;50.852;8.098;2022-12-29T06:20:52;3.17;;;0.90;;
9789;SDS011;4934;50.852;8.098;2022-12-29T06:23:18;1.23;;;0.73;;
9789;SDS011;4934;50.852;8.098;2022-12-29T06:25:44;2.97;;;1.08;;
9789;SDS011;4934;50.852;8.098;2022-12-29T06:28:11;2.42;;;1.33;;
9789;SDS011;4934;50.852;8.098;2022-12-29T06:30:37;3.58;;;0.90;;
9789;SDS011;4934;50.852;8.098;2022-12-29T06:33:03;7.38;;;1.30;;
9789;SDS011;4934;50.852;8.098;2022-12-29T06:35:28;2.17;;;1.33;;
9789;SDS011;4934;50.852;8.098;2022-12-29T06:37:54;3.13;;;1.23;;
9789;SDS011;4934;50.852;8.098;2022-12-29T06:40:19;2.78;;;0.98;;
9789;SDS011;4934;50.852;8.098;2022-12-29T06:42:46;1.83;;;1.10;;
9789;SDS011;4934;50.852;8.098;2022-12-29T06:45:12;2.42;;;1.10;;
9789;SDS011;4934;50.852;8.098;2022-12-29T06:47:37;1.85;;;0.90;;
9789;SDS011;4934;50.852;8.098;2022-12-29T06:50:03;1.88;;;1.10;;
9789;SDS011;4934;50.852;8.098;2022-12-29T06:52:29;2.00;;;0.98;;
9789;SDS011;4934;50.852;8.098;2022-12-29T06:54:55;2.83;;;1.00;;
9789;SDS011;4934;50.852;8.098;2022-12-29T06:57:21;2.97;;;1.42;;
9789;SDS011;4934;50.852;8.098;2022-12-29T06:59:46;4.78;;;1.35;;
9789;SDS011;4934;50.852;8.098;2022-12-29T07:02:12;1.92;;;1.35;;
9789;SDS011;4934;50.852;8.098;2022-12-29T07:04:43;3.78;;;0.90;;
9789;SDS011;4934;50.852;8.098;2022-12-29T07:07:08;3.25;;;0.95;;
9789;SDS011;4934;50.852;8.098;2022-12-29T07:09:34;2.65;;;1.50;;
9789;SDS011;4934;50.852;8.098;2022-12-29T07:11:59;2.28;;;1.25;;
9789;SDS011;4934;50.852;8.098;2022-12-29T07:14:25;5.10;;;1.60;;
9789;SDS011;4934;50.852;8.098;2022-12-29T07:16:51;3.08;;;0.88;;
9789;SDS011;4934;50.852;8.098;2022-12-29T07:19:16;2.50;;;1.05;;
9789;SDS011;4934;50.852;8.098;2022-12-29T07:21:42;1.42;;;0.80;;
9789;SDS011;4934;50.852;8.098;2022-12-29T07:24:08;2.65;;;1.20;;
9789;SDS011;4934;50.852;8.098;2022-12-29T07:26:34;1.17;;;1.00;;
9789;SDS011;4934;50.852;8.098;2022-12-29T07:29:01;1.80;;;0.93;;
9789;SDS011;4934;50.852;8.098;2022-12-29T07:31:27;1.30;;;0.80;;
9789;SDS011;4934;50.852;8.098;2022-12-29T07:33:53;2.75;;;1.10;;
9789;SDS011;4934;50.852;8.098;2022-12-29T07:36:19;1.25;;;0.98;;
9789;SDS011;4934;50.852;8.098;2022-12-29T07:38:44;2.15;;;1.15;;
9789;SDS011;4934;50.852;8.098;2022-12-29T07:41:10;4.93;;;1.55;;
9789;SDS011;4934;50.852;8.098;2022-12-29T07:43:36;2.60;;;1.17;;
9789;SDS011;4934;50.852;8.098;2022-12-29T07:46:01;3.20;;;1.00;;
9789;SDS011;4934;50.852;8.098;2022-12-29T07:48:27;3.80;;;1.05;;
9789;SDS011;4934;50.852;8.098;2022-12-29T07:50:53;2.25;;;1.00;;
9789;SDS011;4934;50.852;8.098;2022-12-29T07:53:18;1.38;;;0.80;;
9789;SDS011;4934;50.852;8.098;2022-12-29T07:55:44;1.13;;;0.77;;
9789;SDS011;4934;50.852;8.098;2022-12-29T07:58:10;0.43;;;0.40;;
9789;SDS011;4934;50.852;8.098;2022-12-29T08:00:36;4.18;;;0.60;;
9789;SDS011;4934;50.852;8.098;2022-12-29T08:03:03;1.35;;;0.73;;
9789;SDS011;4934;50.852;8.098;2022-12-29T08:05:29;1.83;;;1.00;;
9789;SDS011;4934;50.852;8.098;2022-12-29T08:08:00;0.65;;;0.50;;
9789;SDS011;4934;50.852;8.098;2022-12-29T08:10:25;1.23;;;0.77;;
9789;SDS011;4934;50.852;8.098;2022-12-29T08:12:51;5.13;;;2.17;;
9789;SDS011;4934;50.852;8.098;2022-12-29T08:15:17;2.95;;;0.80;;
9789;SDS011;4934;50.852;8.098;2022-12-29T08:17:42;1.40;;;0.50;;
9789;SDS011;4934;50.852;8.098;2022-12-29T08:20:08;0.73;;;0.60;;
9789;SDS011;4934;50.852;8.098;2022-12-29T08:22:34;1.00;;;0.70;;
9789;SDS011;4934;50.852;8.098;2022-12-29T08:25:00;2.65;;;0.57;;
9789;SDS011;4934;50.852;8.098;2022-12-29T08:27:26;2.03;;;0.63;;
9789;SDS011;4934;50.852;8.098;2022-12-29T08:29:52;1.00;;;0.30;;
9789;SDS011;4934;50.852;8.098;2022-12-29T08:32:17;1.88;;;0.45;;
9789;SDS011;4934;50.852;8.098;2022-12-29T08:34:43;4.13;;;0.70;;
9789;SDS011;4934;50.852;8.098;2022-12-29T08:37:09;1.45;;;0.50;;
9789;SDS011;4934;50.852;8.098;2022-12-29T08:39:34;1.02;;;0.40;;
9789;SDS011;4934;50.852;8.098;2022-12-29T08:42:00;0.77;;;0.35;;
9789;SDS011;4934;50.852;8.098;2022-12-29T08:44:30;2.08;;;0.80;;
9789;SDS011;4934;50.852;8.098;2022-12-29T08:46:56;1.95;;;1.13;;
9789;SDS011;4934;50.852;8.098;2022-12-29T08:49:21;1.63;;;0.40;;
9789;SDS011;4934;50.852;8.098;2022-12-29T08:51:47;2.42;;;0.70;;
9789;SDS011;4934;50.852;8.098;2022-12-29T08:54:12;1.55;;;0.50;;
9789;SDS011;4934;50.852;8.098;2022-12-29T08:56:38;1.05;;;0.65;;
9789;SDS011;4934;50.852;8.098;2022-12-29T08:59:04;0.20;;;0.20;;
9789;SDS011;4934;50.852;8.098;2022-12-29T09:01:29;0.80;;;0.45;;
9789;SDS011;4934;50.852;8.098;2022-12-29T09:03:55;3.42;;;0.60;;
9789;SDS011;4934;50.852;8.098;2022-12-29T09:06:21;3.60;;;0.60;;
9789;SDS011;4934;50.852;8.098;2022-12-29T09:08:47;1.30;;;0.32;;
9789;SDS011;4934;50.852;8.098;2022-12-29T09:11:17;2.88;;;0.63;;
9789;SDS011;4934;50.852;8.098;2022-12-29T09:13:45;2.35;;;0.55;;
9789;SDS011;4934;50.852;8.098;2022-12-29T09:16:12;1.80;;;0.73;;
9789;SDS011;4934;50.852;8.098;2022-12-29T09:18:38;2.50;;;0.70;;
9789;SDS011;4934;50.852;8.098;2022-12-29T09:21:04;0.93;;;0.50;;
9789;SDS011;4934;50.852;8.098;2022-12-29T09:23:31;1.58;;;0.40;;
9789;SDS011;4934;50.852;8.098;2022-12-29T09:25:57;2.20;;;0.38;;
9789;SDS011;4934;50.852;8.098;2022-12-29T09:28:22;1.65;;;0.65;;
9789;SDS011;4934;50.852;8.098;2022-12-29T09:30:49;1.48;;;0.63;;
9789;SDS011;4934;50.852;8.098;2022-12-29T09:33:15;1.35;;;0.60;;
9789;SDS011;4934;50.852;8.098;2022-12-29T09:35:44;11.68;;;1.27;;
9789;SDS011;4934;50.852;8.098;2022-12-29T09:38:44;3.55;;;0.80;;
9789;SDS011;4934;50.852;8.098;2022-12-29T09:47:14;3.28;;;0.60;;
9789;SDS011;4934;50.852;8.098;2022-12-29T09:52:52;1.73;;;0.38;;
9789;SDS011;4934;50.852;8.098;2022-12-29T09:58:34;2.13;;;0.70;;
9789;SDS011;4934;50.852;8.098;2022-12-29T10:01:26;3.35;;;0.40;;
9789;SDS011;4934;50.852;8.098;2022-12-29T10:03:58;3.13;;;0.50;;
9789;SDS011;4934;50.852;8.098;2022-12-29T10:09:54;5.40;;;0.50;;
9789;SDS011;4934;50.852;8.098;2022-12-29T10:15:05;3.72;;;0.63;;
9789;SDS011;4934;50.852;8.098;2022-12-29T10:20:31;4.85;;;0.80;;
9789;SDS011;4934;50.852;8.098;2022-12-29T10:25:45;1.52;;;0.65;;
9789;SDS011;4934;50.852;8.098;2022-12-29T10:28:23;4.95;;;0.80;;
9789;SDS011;4934;50.852;8.098;2022-12-29T10:31:30;2.83;;;0.60;;
9789;SDS011;4934;50.852;8.098;2022-12-29T10:34:15;2.05;;;0.55;;
9789;SDS011;4934;50.852;8.098;2022-12-29T10:39:44;4.32;;;0.88;;
9789;SDS011;4934;50.852;8.098;2022-12-29T10:45:25;2.53;;;1.00;;
9789;SDS011;4934;50.852;8.098;2022-12-29T10:48:12;3.95;;;0.73;;
9789;SDS011;4934;50.852;8.098;2022-12-29T10:50:47;3.95;;;0.73;;
9789;SDS011;4934;50.852;8.098;2022-12-29T10:53:19;2.70;;;0.75;;
9789;SDS011;4934;50.852;8.098;2022-12-29T10:55:47;5.70;;;1.15;;
9789;SDS011;4934;50.852;8.098;2022-12-29T10:58:15;4.32;;;1.15;;
9789;SDS011;4934;50.852;8.098;2022-12-29T11:00:41;3.00;;;0.80;;
9789;SDS011;4934;50.852;8.098;2022-12-29T11:06:12;7.78;;;1.33;;
9789;SDS011;4934;50.852;8.098;2022-12-29T11:08:41;3.22;;;0.80;;
9789;SDS011;4934;50.852;8.098;2022-12-29T11:11:22;12.30;;;0.98;;
9789;SDS011;4934;50.852;8.098;2022-12-29T11:13:57;4.97;;;1.25;;
9789;SDS011;4934;50.852;8.098;2022-12-29T11:16:31;5.90;;;0.85;;
9789;SDS011;4934;50.852;8.098;2022-12-29T11:18:58;5.18;;;1.48;;
9789;SDS011;4934;50.852;8.098;2022-12-29T11:21:31;6.53;;;1.17;;
9789;SDS011;4934;50.852;8.098;2022-12-29T11:24:05;4.25;;;0.82;;
9789;SDS011;4934;50.852;8.098;2022-12-29T11:26:43;7.22;;;1.20;;
9789;SDS011;4934;50.852;8.098;2022-12-29T11:34:06;2.60;;;1.10;;
9789;SDS011;4934;50.852;8.098;2022-12-29T11:36:32;5.95;;;0.70;;
9789;SDS011;4934;50.852;8.098;2022-12-29T11:39:00;2.22;;;1.02;;
9789;SDS011;4934;50.852;8.098;2022-12-29T11:41:29;2.13;;;1.17;;
9789;SDS011;4934;50.852;8.098;2022-12-29T11:43:59;4.93;;;1.20;;
9789;SDS011;4934;50.852;8.098;2022-12-29T11:46:29;3.58;;;0.73;;
9789;SDS011;4934;50.852;8.098;2022-12-29T11:49:02;3.22;;;1.08;;
9789;SDS011;4934;50.852;8.098;2022-12-29T11:51:30;6.75;;;1.00;;
9789;SDS011;4934;50.852;8.098;2022-12-29T11:54:17;13.20;;;4.18;;
9789;SDS011;4934;50.852;8.098;2022-12-29T11:56:48;5.18;;;1.27;;
9789;SDS011;4934;50.852;8.098;2022-12-29T12:01:52;1.85;;;0.80;;
9789;SDS011;4934;50.852;8.098;2022-12-29T12:04:19;4.28;;;0.90;;
9789;SDS011;4934;50.852;8.098;2022-12-29T12:07:00;3.95;;;1.10;;
9789;SDS011;4934;50.852;8.098;2022-12-29T12:09:43;3.28;;;0.63;;
9789;SDS011;4934;50.852;8.098;2022-12-29T12:12:24;2.23;;;1.20;;
9789;SDS011;4934;50.852;8.098;2022-12-29T12:15:01;5.78;;;0.90;;
9789;SDS011;4934;50.852;8.098;2022-12-29T12:17:44;5.45;;;0.90;;
9789;SDS011;4934;50.852;8.098;2022-12-29T12:23:14;8.60;;;1.13;;
9789;SDS011;4934;50.852;8.098;2022-12-29T12:31:35;2.30;;;0.73;;
9789;SDS011;4934;50.852;8.098;2022-12-29T12:34:24;1.48;;;0.60;;
9789;SDS011;4934;50.852;8.098;2022-12-29T12:37:03;4.35;;;0.80;;
9789;SDS011;4934;50.852;8.098;2022-12-29T12:53:17;4.13;;;1.10;;
9789;SDS011;4934;50.852;8.098;2022-12-29T12:59:13;4.97;;;0.98;;
9789;SDS011;4934;50.852;8.098;2022-12-29T13:04:49;6.90;;;1.38;;
9789;SDS011;4934;50.852;8.098;2022-12-29T13:13:41;10.13;;;1.30;;
9789;SDS011;4934;50.852;8.098;2022-12-29T13:16:46;6.30;;;1.08;;
9789;SDS011;4934;50.852;8.098;2022-12-29T13:30:26;9.85;;;1.88;;
9789;SDS011;4934;50.852;8.098;2022-12-29T13:38:34;12.35;;;1.30;;
9789;SDS011;4934;50.852;8.098;2022-12-29T13:41:08;7.20;;;1.00;;
9789;SDS011;4934;50.852;8.098;2022-12-29T13:43:38;6.50;;;1.20;;
9789;SDS011;4934;50.852;8.098;2022-12-29T13:46:07;4.63;;;0.90;;
9789;SDS011;4934;50.852;8.098;2022-12-29T13:51:19;4.97;;;1.17;;
9789;SDS011;4934;50.852;8.098;2022-12-29T13:53:53;7.68;;;1.20;;
9789;SDS011;4934;50.852;8.098;2022-12-29T14:01:53;5.63;;;2.20;;
9789;SDS011;4934;50.852;8.098;2022-12-29T14:04:29;5.63;;;1.08;;
9789;SDS011;4934;50.852;8.098;2022-12-29T14:07:02;5.00;;;1.10;;
9789;SDS011;4934;50.852;8.098;2022-12-29T14:09:48;6.75;;;1.00;;
9789;SDS011;4934;50.852;8.098;2022-12-29T14:15:01;4.20;;;1.10;;
9789;SDS011;4934;50.852;8.098;2022-12-29T14:17:59;4.95;;;0.80;;
9789;SDS011;4934;50.852;8.098;2022-12-29T14:20:30;10.50;;;1.23;;
9789;SDS011;4934;50.852;8.098;2022-12-29T14:23:16;3.80;;;1.10;;
9789;SDS011;4934;50.852;8.098;2022-12-29T14:25:59;5.60;;;1.00;;
9789;SDS011;4934;50.852;8.098;2022-12-29T14:29:41;6.07;;;1.10;;
9789;SDS011;4934;50.852;8.098;2022-12-29T14:31:44;6.80;;;1.48;;
9789;SDS011;4934;50.852;8.098;2022-12-29T14:36:37;6.55;;;1.30;;
9789;SDS011;4934;50.852;8.098;2022-12-29T14:47:39;7.30;;;1.40;;
9789;SDS011;4934;50.852;8.098;2022-12-29T14:58:32;5.85;;;3.25;;
9789;SDS011;4934;50.852;8.098;2022-12-29T15:01:39;7.53;;;2.42;;
9789;SDS011;4934;50.852;8.098;2022-12-29T15:04:20;10.07;;;3.05;;
9789;SDS011;4934;50.852;8.098;2022-12-29T15:06:48;7.67;;;2.73;;
9789;SDS011;4934;50.852;8.098;2022-12-29T15:09:32;11.55;;;2.63;;
9789;SDS011;4934;50.852;8.098;2022-12-29T15:14:59;8.10;;;1.38;;
9789;SDS011;4934;50.852;8.098;2022-12-29T15:17:29;7.47;;;1.50;;
9789;SDS011;4934;50.852;8.098;2022-12-29T15:19:56;5.93;;;2.10;;
9789;SDS011;4934;50.852;8.098;2022-12-29T15:22:24;8.15;;;3.17;;
9789;SDS011;4934;50.852;8.098;2022-12-29T15:24:53;8.82;;;2.47;;
9789;SDS011;4934;50.852;8.098;2022-12-29T15:27:21;9.73;;;4.03;;
9789;SDS011;4934;50.852;8.098;2022-12-29T15:29:55;7.18;;;2.15;;
9789;SDS011;4934;50.852;8.098;2022-12-29T15:32:27;4.45;;;2.50;;
9789;SDS011;4934;50.852;8.098;2022-12-29T15:34:55;7.93;;;2.13;;
9789;SDS011;4934;50.852;8.098;2022-12-29T15:37:34;10.82;;;2.78;;
9789;SDS011;4934;50.852;8.098;2022-12-29T15:40:02;7.40;;;2.10;;
9789;SDS011;4934;50.852;8.098;2022-12-29T15:42:35;9.25;;;1.55;;
9789;SDS011;4934;50.852;8.098;2022-12-29T15:45:11;7.55;;;1.27;;
9789;SDS011;4934;50.852;8.098;2022-12-29T15:47:37;4.70;;;1.08;;
9789;SDS011;4934;50.852;8.098;2022-12-29T15:50:06;5.18;;;1.30;;
9789;SDS011;4934;50.852;8.098;2022-12-29T15:52:49;11.07;;;2.75;;
9789;SDS011;4934;50.852;8.098;2022-12-29T15:55:20;10.23;;;2.88;;
9789;SDS011;4934;50.852;8.098;2022-12-29T15:58:19;5.68;;;1.77;;
9789;SDS011;4934;50.852;8.098;2022-12-29T16:00:52;5.30;;;1.67;;
9789;SDS011;4934;50.852;8.098;2022-12-29T16:03:24;9.35;;;1.50;;
9789;SDS011;4934;50.852;8.098;2022-12-29T16:05:52;6.13;;;1.58;;
9789;SDS011;4934;50.852;8.098;2022-12-29T16:08:34;9.48;;;1.88;;
9789;SDS011;4934;50.852;8.098;2022-12-29T16:11:03;3.60;;;1.52;;
9789;SDS011;4934;50.852;8.098;2022-12-29T16:13:49;7.93;;;1.77;;
9789;SDS011;4934;50.852;8.098;2022-12-29T16:16:21;5.80;;;1.63;;
9789;SDS011;4934;50.852;8.098;2022-12-29T16:19:14;11.00;;;2.17;;
9789;SDS011;4934;50.852;8.098;2022-12-29T16:21:48;5.32;;;2.10;;
9789;SDS011;4934;50.852;8.098;2022-12-29T16:24:19;8.80;;;2.00;;
9789;SDS011;4934;50.852;8.098;2022-12-29T16:27:25;8.82;;;1.92;;
9789;SDS011;4934;50.852;8.098;2022-12-29T16:30:06;6.80;;;1.90;;
9789;SDS011;4934;50.852;8.098;2022-12-29T16:32:45;7.50;;;2.03;;
9789;SDS011;4934;50.852;8.098;2022-12-29T16:35:16;8.07;;;2.65;;
9789;SDS011;4934;50.852;8.098;2022-12-29T16:37:42;11.55;;;3.17;;
9789;SDS011;4934;50.852;8.098;2022-12-29T16:40:27;25.10;;;6.90;;
9789;SDS011;4934;50.852;8.098;2022-12-29T16:43:00;23.63;;;7.57;;
9789;SDS011;4934;50.852;8.098;2022-12-29T16:48:25;16.83;;;5.57;;
9789;SDS011;4934;50.852;8.098;2022-12-29T16:51:04;17.85;;;5.93;;
9789;SDS011;4934;50.852;8.098;2022-12-29T16:53:47;6.88;;;1.92;;
9789;SDS011;4934;50.852;8.098;2022-12-29T16:56:23;6.65;;;1.75;;
9789;SDS011;4934;50.852;8.098;2022-12-29T16:59:06;5.60;;;1.90;;
9789;SDS011;4934;50.852;8.098;2022-12-29T17:01:45;9.40;;;2.55;;
9789;SDS011;4934;50.852;8.098;2022-12-29T17:04:12;11.98;;;2.10;;
9789;SDS011;4934;50.852;8.098;2022-12-29T17:06:48;5.70;;;1.52;;
9789;SDS011;4934;50.852;8.098;2022-12-29T17:09:18;4.90;;;1.48;;
9789;SDS011;4934;50.852;8.098;2022-12-29T17:12:09;9.40;;;1.95;;
9789;SDS011;4934;50.852;8.098;2022-12-29T17:14:41;7.82;;;2.13;;
9789;SDS011;4934;50.852;8.098;2022-12-29T17:17:15;11.05;;;2.15;;
9789;SDS011;4934;50.852;8.098;2022-12-29T17:19:52;6.80;;;2.05;;
9789;SDS011;4934;50.852;8.098;2022-12-29T17:22:29;7.60;;;2.72;;
9789;SDS011;4934;50.852;8.098;2022-12-29T17:25:02;6.97;;;2.40;;
9789;SDS011;4934;50.852;8.098;2022-12-29T17:27:42;12.07;;;2.40;;
9789;SDS011;4934;50.852;8.098;2022-12-29T17:30:20;6.50;;;1.52;;
9789;SDS011;4934;50.852;8.098;2022-12-29T17:32:57;4.53;;;1.13;;
9789;SDS011;4934;50.852;8.098;2022-12-29T17:35:24;9.15;;;2.05;;
9789;SDS011;4934;50.852;8.098;2022-12-29T17:37:50;12.40;;;1.90;;
9789;SDS011;4934;50.852;8.098;2022-12-29T17:40:42;6.47;;;1.75;;
9789;SDS011;4934;50.852;8.098;2022-12-29T17:43:08;5.78;;;1.83;;
9789;SDS011;4934;50.852;8.098;2022-12-29T17:45:39;10.30;;;3.33;;
9789;SDS011;4934;50.852;8.098;2022-12-29T17:48:10;10.77;;;2.35;;
9789;SDS011;4934;50.852;8.098;2022-12-29T17:50:37;9.40;;;2.50;;
9789;SDS011;4934;50.852;8.098;2022-12-29T17:53:06;11.27;;;2.15;;
9789;SDS011;4934;50.852;8.098;2022-12-29T17:55:37;12.75;;;2.10;;
9789;SDS011;4934;50.852;8.098;2022-12-29T18:01:21;7.43;;;1.75;;
9789;SDS011;4934;50.852;8.098;2022-12-29T18:06:16;7.68;;;3.13;;
9789;SDS011;4934;50.852;8.098;2022-12-29T18:08:41;7.35;;;2.55;;
9789;SDS011;4934;50.852;8.098;2022-12-29T18:11:18;5.72;;;1.70;;
9789;SDS011;4934;50.852;8.098;2022-12-29T18:13:53;6.20;;;3.00;;
9789;SDS011;4934;50.852;8.098;2022-12-29T18:16:19;9.73;;;1.90;;
9789;SDS011;4934;50.852;8.098;2022-12-29T18:18:46;7.35;;;1.70;;
9789;SDS011;4934;50.852;8.098;2022-12-29T18:21:22;17.67;;;2.50;;
9789;SDS011;4934;50.852;8.098;2022-12-29T18:23:52;8.55;;;1.70;;
9789;SDS011;4934;50.852;8.098;2022-12-29T18:26:40;11.88;;;2.25;;
9789;SDS011;4934;50.852;8.098;2022-12-29T18:29:06;7.68;;;2.00;;